Tatarsk, Russia
Current Conditions -  °F | °C
As of 5:30 AM on Sunday 26 Oct 2014 (Local Time) from UNOO Reporting Station
Clear Clear  
Wind Chill: -9°   Ceiling: Unl
Heat Index:   Visibility: 6mi
Dew Point:   Wind: 9mph
Humidity: 85%   Direction: 260°W
Pressure: 29.91"   Gusts: NA
Location:  55.22°N, 75.97°E
Report Text: UNOO 252230Z 26004MPS CAVOK M15/M17 Q1013 25450550 NOSIG RMKQFE752
Loading
Personal Weather Stations






























Interactive Weather Map
Tropical Storm Tracking
New forecast layout! Learn more

10-Day Weather Forecast

Advertisements
Track Severe Weather on mobile